Time;durP1;ratioP1;P1;durP2;ratioP2;P2;SDS_P1;SDS_P2;PMS_P1;PMS_P2;Temp;Humidity;BMP_temperature;BMP_pressure;BME280_temperature;BME280_humidity;BME280_pressure;Samples;Min_cycle;Max_cycle;Signal;HPM_P1;HPM_P2
2021/08/08 00:01:44;;;;;;;0.70;0.70;;;;;;;17.65;68.20;100196.19;1677436;84;21122;-57
2021/08/08 00:04:11;;;;;;;1.85;0.85;;;;;;;17.61;68.57;100198.56;1676113;84;21617;-56
2021/08/08 00:06:42;;;;;;;0.80;0.80;;;;;;;17.61;68.70;100202.61;1680002;84;21055;-57
2021/08/08 00:09:09;;;;;;;1.42;1.30;;;;;;;17.67;68.93;100204.88;1668576;85;21581;-56
2021/08/08 00:11:37;;;;;;;2.12;0.93;;;;;;;17.68;69.00;100208.66;1666475;84;20999;-55
2021/08/08 00:14:05;;;;;;;1.10;1.10;;;;;;;17.66;68.92;100208.08;1658180;85;21641;-54
2021/08/08 00:16:33;;;;;;;0.80;0.80;;;;;;;17.62;69.29;100210.97;1655961;85;21112;-53
2021/08/08 00:19:01;;;;;;;1.00;1.00;;;;;;;17.56;69.44;100202.49;1647995;85;21549;-53
2021/08/08 00:21:29;;;;;;;1.15;1.15;;;;;;;17.54;69.69;100205.11;1657369;85;21044;-54
2021/08/08 00:23:57;;;;;;;1.15;0.90;;;;;;;17.55;69.79;100204.88;1650101;85;21055;-56
2021/08/08 00:26:24;;;;;;;2.45;1.15;;;;;;;17.61;69.85;100199.07;1656642;85;21566;-55
2021/08/08 00:28:51;;;;;;;1.27;1.17;;;;;;;17.62;69.96;100198.84;1658574;85;21198;-55
2021/08/08 00:31:23;;;;;;;0.78;0.78;;;;;;;17.60;70.05;100202.84;1657780;85;21540;-55
2021/08/08 00:33:50;;;;;;;1.55;1.25;;;;;;;17.54;70.25;100203.77;1658993;85;21633;-54
2021/08/08 00:36:18;;;;;;;1.32;1.22;;;;;;;17.47;70.53;100204.73;1682446;83;21073;-56
2021/08/08 00:38:46;;;;;;;0.72;0.72;;;;;;;17.47;70.88;100202.03;1644826;84;21014;-57
2021/08/08 00:41:14;;;;;;;1.20;1.17;;;;;;;17.53;70.80;100208.34;1666505;84;21000;-56
2021/08/08 00:43:43;;;;;;;1.30;1.20;;;;;;;17.56;70.68;100206.53;1659480;84;21046;-55
2021/08/08 00:46:10;;;;;;;1.07;0.75;;;;;;;17.58;70.65;100213.04;1666848;84;21518;-57
2021/08/08 00:48:38;;;;;;;1.70;1.60;;;;;;;17.59;70.73;100214.13;1670188;84;21187;-62
2021/08/08 00:51:06;;;;;;;1.47;0.90;;;;;;;17.56;71.04;100209.23;1666220;84;21561;-61
2021/08/08 00:53:35;;;;;;;0.82;0.82;;;;;;;17.53;71.10;100207.53;1663877;84;21143;-62
2021/08/08 00:56:03;;;;;;;1.27;1.15;;;;;;;17.50;71.27;100209.66;1666739;84;21064;-62
2021/08/08 00:58:30;;;;;;;1.60;1.30;;;;;;;17.52;71.27;100209.42;1600852;87;21142;-61
2021/08/08 01:01:02;;;;;;;0.70;0.70;;;;;;;17.53;71.09;100205.66;1614805;86;21573;-61
2021/08/08 01:03:31;;;;;;;1.20;1.20;;;;;;;17.53;71.13;100212.92;1649131;86;21080;-62
2021/08/08 01:06:17;;;;;;;0.98;0.93;;;;;;;17.46;71.40;100219.27;1656460;86;21032;-63
2021/08/08 01:08:56;;;;;;;1.53;1.43;;;;;;;17.43;71.63;100229.70;1659086;86;21055;-61
2021/08/08 01:11:24;;;;;;;1.60;1.25;;;;;;;17.39;71.78;100228.53;1648863;86;20973;-61
2021/08/08 01:13:53;;;;;;;1.32;1.22;;;;;;;17.38;71.77;100224.19;1616191;87;21550;-62
2021/08/08 01:16:22;;;;;;;3.12;1.30;;;;;;;17.39;72.12;100222.61;1624625;87;21120;-61
2021/08/08 01:18:53;;;;;;;3.80;1.55;;;;;;;17.37;71.94;100228.77;1603907;87;20997;-61
2021/08/08 01:21:22;;;;;;;1.52;1.50;;;;;;;17.30;72.29;100231.56;1601225;87;21515;-64
2021/08/08 01:24:01;;;;;;;1.87;1.77;;;;;;;17.24;72.33;100237.09;1668384;86;21090;-64
2021/08/08 01:26:30;;;;;;;1.17;1.17;;;;;;;17.20;72.72;100234.58;1643736;86;21098;-64
2021/08/08 01:29:01;;;;;;;1.85;1.55;;;;;;;17.20;72.58;100235.39;1656040;86;21149;-64
2021/08/08 01:31:28;;;;;;;4.35;1.45;;;;;;;17.20;72.70;100240.78;1655038;86;21086;-64
2021/08/08 01:33:55;;;;;;;2.10;1.75;;;;;;;17.16;73.06;100243.66;1627570;87;21532;-64
2021/08/08 01:36:24;;;;;;;2.00;1.80;;;;;;;17.09;73.17;100241.59;1647633;86;21581;-65
2021/08/08 01:39:00;;;;;;;1.72;1.65;;;;;;;17.05;73.40;100240.43;1657868;86;21610;-64
2021/08/08 01:41:32;;;;;;;2.05;1.95;;;;;;;17.03;73.66;100244.70;1649929;86;21039;-64
2021/08/08 01:44:02;;;;;;;1.70;1.60;;;;;;;17.09;73.67;100246.45;1636785;86;21163;-64
2021/08/08 01:46:33;;;;;;;2.40;2.20;;;;;;;17.12;73.64;100247.84;1632330;86;21098;-64
2021/08/08 01:49:06;;;;;;;1.67;1.55;;;;;;;17.10;73.87;100247.26;1654271;86;21608;-64
2021/08/08 01:51:32;;;;;;;2.22;2.12;;;;;;;17.06;74.10;100244.75;1648072;86;21078;-65
2021/08/08 01:53:59;;;;;;;3.35;2.08;;;;;;;17.02;74.22;100236.84;1637363;86;21071;-64
2021/08/08 01:56:28;;;;;;;3.55;2.40;;;;;;;17.01;74.26;100238.73;1644994;85;21038;-64
2021/08/08 01:58:55;;;;;;;2.90;2.70;;;;;;;16.84;74.21;100200.06;1642618;85;21126;-64
2021/08/08 02:01:29;;;;;;;2.27;2.17;;;;;;;17.13;73.83;100244.11;1646985;85;21096;-61
2021/08/08 02:03:57;;;;;;;3.75;2.20;;;;;;;17.13;73.93;100247.62;1655341;85;21077;-61
2021/08/08 02:06:23;;;;;;;;;;;;;;;17.07;74.32;100242.36;1663361;85;21466;-60
2021/08/08 02:08:52;;;;;;;2.15;2.05;;;;;;;17.01;74.32;100243.27;1652700;85;20117;-61
2021/08/08 02:11:19;;;;;;;2.17;2.08;;;;;;;16.89;74.66;100250.81;1663025;85;21057;-62
2021/08/08 02:13:46;;;;;;;2.95;2.72;;;;;;;16.86;74.76;100240.52;1658482;85;21068;-62
2021/08/08 02:16:14;;;;;;;3.60;2.67;;;;;;;16.88;74.57;100244.34;1662975;85;21060;-61
2021/08/08 02:18:40;;;;;;;2.65;2.45;;;;;;;16.81;74.66;100243.05;1662869;85;21622;-61
2021/08/08 02:21:09;;;;;;;2.87;2.27;;;;;;;16.77;74.96;100255.88;1656748;85;21080;-62
2021/08/08 02:23:36;;;;;;;2.62;1.92;;;;;;;16.76;75.10;100255.03;1636590;86;21147;-61
2021/08/08 02:26:03;;;;;;;3.40;2.33;;;;;;;16.79;75.24;100257.80;1634182;86;21561;-60
2021/08/08 02:28:32;;;;;;;6.12;2.05;;;;;;;16.79;75.24;100251.89;1635820;86;21126;-61
2021/08/08 02:30:59;;;;;;;2.87;2.30;;;;;;;16.80;75.30;100255.39;1633904;86;21006;-61
2021/08/08 02:33:27;;;;;;;2.35;2.25;;;;;;;16.79;75.37;100254.58;1637505;86;21072;-61
2021/08/08 02:35:53;;;;;;;;;;;;;;;16.83;75.26;100252.28;1642693;86;21076;-61
2021/08/08 02:38:19;;;;;;;4.17;2.62;;;;;;;16.90;75.11;100255.16;1640073;86;20123;-62
2021/08/08 02:40:46;;;;;;;4.50;1.87;;;;;;;16.91;75.08;100252.77;1633195;86;21614;-63
2021/08/08 02:43:13;;;;;;;2.02;1.62;;;;;;;16.94;74.77;100252.82;1642752;86;21080;-62
2021/08/08 02:45:41;;;;;;;3.85;2.27;;;;;;;16.92;74.64;100254.39;1641394;86;21031;-61
2021/08/08 02:48:09;;;;;;;1.90;1.72;;;;;;;16.87;74.80;100259.65;1644937;86;21732;-62
2021/08/08 02:50:36;;;;;;;2.10;2.00;;;;;;;16.84;74.97;100255.25;1639762;86;21001;-61
2021/08/08 02:53:03;;;;;;;3.58;2.17;;;;;;;16.86;74.84;100255.33;1637014;86;21015;-62
2021/08/08 02:55:30;;;;;;;6.40;2.10;;;;;;;16.88;74.44;100249.72;1626689;86;21056;-63
2021/08/08 02:57:58;;;;;;;6.08;2.10;;;;;;;16.87;74.79;100256.14;1624086;86;21109;-63
2021/08/08 03:00:24;;;;;;;5.55;1.85;;;;;;;16.95;75.04;100260.36;1642432;86;21074;-61
2021/08/08 03:02:50;;;;;;;;;;;;;;;17.17;75.11;100264.67;1646129;86;21024;-61
2021/08/08 03:05:18;;;;;;;3.58;2.02;;;;;;;17.44;74.67;100267.70;1640363;86;20504;-63
2021/08/08 03:07:46;;;;;;;6.80;3.12;;;;;;;17.76;73.93;100261.91;1625233;86;21582;-63
2021/08/08 03:10:13;;;;;;;4.95;2.22;;;;;;;18.12;72.42;100256.77;1623669;86;21516;-63
2021/08/08 03:12:40;;;;;;;1.52;1.42;;;;;;;18.51;71.21;100258.81;1635542;86;21025;-62
2021/08/08 03:15:09;;;;;;;3.75;2.47;;;;;;;18.95;69.89;100257.17;1615506;87;21591;-64
2021/08/08 03:17:35;;;;;;;2.87;1.85;;;;;;;19.46;68.20;100258.47;1641018;86;21057;-62
2021/08/08 03:20:01;;;;;;;2.00;1.57;;;;;;;19.92;66.33;100257.72;1631754;86;21107;-62
2021/08/08 03:22:29;;;;;;;1.90;1.80;;;;;;;20.32;64.78;100251.13;1637401;86;21024;-63
2021/08/08 03:24:57;;;;;;;3.08;2.87;;;;;;;20.71;62.59;100257.76;1635694;86;21649;-65
2021/08/08 03:27:23;;;;;;;6.08;3.02;;;;;;;21.03;61.48;100256.12;1637604;87;21074;-65
2021/08/08 03:29:52;;;;;;;3.75;2.72;;;;;;;21.33;60.67;100257.67;1623583;87;21048;-65
2021/08/08 03:32:19;;;;;;;1.90;1.80;;;;;;;21.69;59.12;100261.97;1624627;86;21111;-64
2021/08/08 03:34:46;;;;;;;5.75;2.42;;;;;;;21.99;58.34;100261.02;1643855;86;21051;-66
2021/08/08 03:37:14;;;;;;;2.42;2.22;;;;;;;22.26;57.56;100254.86;1631754;86;21446;-65
2021/08/08 03:39:42;;;;;;;2.00;1.90;;;;;;;22.58;56.24;100256.55;1636536;86;21555;-65
2021/08/08 03:42:08;;;;;;;2.20;1.95;;;;;;;22.89;55.39;100256.57;1626728;86;21078;-66
2021/08/08 03:44:35;;;;;;;3.27;2.33;;;;;;;23.22;54.43;100253.83;1634509;85;21116;-66
2021/08/08 03:47:02;;;;;;;2.40;2.20;;;;;;;23.55;53.42;100258.95;1643175;85;21037;-66
2021/08/08 03:49:29;;;;;;;2.72;2.52;;;;;;;23.83;52.58;100259.68;1653543;86;21552;-66
2021/08/08 03:53:57;;;;;;;3.30;1.92;;;;;;;24.42;51.17;100258.55;1798813;78;23530;-65
2021/08/08 03:56:23;;;;;;;2.40;2.22;;;;;;;24.65;50.55;100259.20;1767872;80;20958;-66
2021/08/08 03:58:50;;;;;;;2.15;2.00;;;;;;;24.98;49.19;100263.59;1742482;81;21064;-66
2021/08/08 04:01:17;;;;;;;1.95;1.82;;;;;;;25.22;47.88;100251.89;1730068;81;20986;-66
2021/08/08 04:03:44;;;;;;;1.98;1.85;;;;;;;25.15;46.79;100256.91;1758151;81;21232;-66
2021/08/08 04:06:10;;;;;;;2.60;2.40;;;;;;;24.99;47.19;100254.85;1754000;81;21017;-66
2021/08/08 04:08:37;;;;;;;2.67;2.12;;;;;;;24.79;47.61;100260.75;1761687;81;21045;-65
2021/08/08 04:11:12;;;;;;;4.97;2.22;;;;;;;24.56;47.86;100267.72;1757662;81;20986;-66
2021/08/08 04:13:39;;;;;;;1.67;1.57;;;;;;;24.46;48.38;100269.14;1712732;81;21039;-65
2021/08/08 04:16:06;;;;;;;4.65;2.25;;;;;;;24.49;48.07;100268.58;1742297;80;20976;-65
2021/08/08 04:18:33;;;;;;;6.22;2.27;;;;;;;24.53;48.19;100268.31;1744938;81;21063;-65
2021/08/08 04:21:00;;;;;;;3.47;2.10;;;;;;;24.57;48.17;100268.00;1741094;81;21011;-64
2021/08/08 04:23:28;;;;;;;2.30;1.92;;;;;;;24.70;47.85;100263.83;1721302;81;21068;-64
2021/08/08 04:25:54;;;;;;;2.85;1.77;;;;;;;24.83;47.52;100267.81;1697881;83;21100;-64
2021/08/08 04:28:20;;;;;;;2.83;1.65;;;;;;;24.89;47.43;100263.13;1697075;84;21579;-65
2021/08/08 04:30:47;;;;;;;2.08;1.62;;;;;;;25.00;47.29;100257.86;1695064;83;21511;-63
2021/08/08 04:33:13;;;;;;;7.12;2.40;;;;;;;25.10;46.94;100258.30;1696087;83;21002;-63
2021/08/08 04:35:40;;;;;;;2.33;1.67;;;;;;;25.06;47.03;100258.87;1662842;83;21172;-62
2021/08/08 04:38:07;;;;;;;2.30;1.55;;;;;;;25.19;46.61;100257.95;1694748;83;21010;-63
2021/08/08 04:40:35;;;;;;;2.47;1.67;;;;;;;25.24;46.61;100253.81;1705655;83;21002;-63
2021/08/08 04:43:05;;;;;;;2.15;1.40;;;;;;;25.25;46.78;100244.54;1668071;84;20994;-66
2021/08/08 04:45:32;;;;;;;3.25;1.57;;;;;;;25.43;46.26;100254.72;1701746;83;21571;-66
2021/08/08 04:47:58;;;;;;;8.25;3.25;;;;;;;25.70;45.57;100248.41;1696101;84;20982;-66
2021/08/08 04:50:25;;;;;;;2.80;0.70;;;;;;;25.83;45.09;100255.33;1696503;84;21001;-67
2021/08/08 04:52:52;;;;;;;1.50;1.00;;;;;;;25.77;44.39;100259.23;1688258;83;21135;-62
2021/08/08 04:55:24;;;;;;;1.95;0.88;;;;;;;25.84;44.72;100255.61;1680668;84;21585;-64
2021/08/08 04:57:51;;;;;;;6.65;1.62;;;;;;;26.09;43.95;100260.50;1669749;84;21113;-62
2021/08/08 05:00:19;;;;;;;3.00;1.32;;;;;;;26.26;43.47;100261.89;1646681;84;21074;-63
2021/08/08 05:02:48;;;;;;;2.12;0.72;;;;;;;26.24;43.61;100258.11;1705951;83;21565;-61
2021/08/08 05:05:16;;;;;;;0.90;0.53;;;;;;;26.39;43.54;100269.34;1703689;83;21062;-63
2021/08/08 05:07:45;;;;;;;1.22;0.80;;;;;;;26.55;43.33;100266.64;1690642;84;21046;-66
2021/08/08 05:10:15;;;;;;;1.17;0.47;;;;;;;26.72;42.93;100265.33;1696093;84;21470;-66
2021/08/08 05:12:42;;;;;;;0.53;0.42;;;;;;;26.91;42.81;100262.56;1655834;85;21086;-64
2021/08/08 05:15:11;;;;;;;0.50;0.30;;;;;;;27.06;41.98;100257.37;1640241;86;21092;-65
2021/08/08 05:17:38;;;;;;;3.20;0.30;;;;;;;27.11;41.54;100264.13;1671541;84;21050;-65
2021/08/08 05:20:07;;;;;;;0.82;0.30;;;;;;;27.12;41.54;100265.17;1669881;84;21557;-60
2021/08/08 05:22:35;;;;;;;1.30;0.33;;;;;;;27.11;41.61;100273.71;1673142;84;21965;-59
2021/08/08 05:25:04;;;;;;;0.42;0.20;;;;;;;27.06;41.71;100258.75;1670009;84;20951;-62
2021/08/08 05:27:34;;;;;;;3.02;0.20;;;;;;;27.03;41.54;100267.01;1671418;84;21074;-65
2021/08/08 05:30:05;;;;;;;0.23;0.23;;;;;;;26.89;41.94;100271.62;1649816;86;20998;-65
2021/08/08 05:32:33;;;;;;;0.88;0.28;;;;;;;26.85;41.72;100271.97;1667698;85;21063;-63
2021/08/08 05:34:59;;;;;;;0.62;0.40;;;;;;;26.70;41.92;100270.29;1667338;84;21112;-60
2021/08/08 05:37:25;;;;;;;0.20;0.20;;;;;;;26.76;42.00;100269.89;1674536;85;21576;-65
2021/08/08 05:39:52;;;;;;;0.33;0.20;;;;;;;26.83;40.80;100274.99;1667299;84;21070;-66
2021/08/08 05:42:20;;;;;;;0.40;0.25;;;;;;;26.68;41.83;100275.25;1670566;84;21031;-65
2021/08/08 05:44:47;;;;;;;1.65;0.20;;;;;;;26.58;41.62;100268.80;1685063;84;20991;-65
2021/08/08 05:47:13;;;;;;;0.40;0.30;;;;;;;26.47;41.85;100276.89;1714027;83;21847;-66
2021/08/08 05:49:39;;;;;;;0.30;0.30;;;;;;;26.53;41.62;100277.06;1670909;83;21089;-67
2021/08/08 05:52:07;;;;;;;0.40;0.20;;;;;;;26.56;41.51;100274.28;1711823;83;21052;-66
2021/08/08 05:54:34;;;;;;;0.30;0.20;;;;;;;26.42;41.83;100276.40;1714766;83;21526;-64
2021/08/08 05:57:00;;;;;;;0.40;0.35;;;;;;;26.39;42.13;100278.91;1714467;83;21026;-65
2021/08/08 05:59:27;;;;;;;0.20;0.20;;;;;;;26.44;42.13;100284.31;1687474;83;21697;-63
2021/08/08 06:01:54;;;;;;;0.62;0.47;;;;;;;26.50;41.82;100294.05;1711034;83;21427;-56
2021/08/08 06:04:20;;;;;;;1.47;0.50;;;;;;;26.63;41.42;100293.09;1686217;84;21046;-54
2021/08/08 06:06:47;;;;;;;0.60;0.40;;;;;;;26.61;40.64;100294.18;1710590;83;20967;-53
2021/08/08 06:09:13;;;;;;;0.70;0.37;;;;;;;26.53;41.15;100295.39;1706556;83;21576;-54
2021/08/08 06:11:39;;;;;;;0.42;0.30;;;;;;;26.43;41.56;100292.27;1701693;83;21079;-53
2021/08/08 06:14:05;;;;;;;1.75;0.25;;;;;;;26.16;42.31;100295.63;1666798;84;21513;-54
2021/08/08 06:16:31;;;;;;;0.72;0.20;;;;;;;25.92;42.11;100294.30;1668029;84;21008;-54
2021/08/08 06:18:59;;;;;;;0.70;0.20;;;;;;;25.75;42.04;100297.47;1663917;84;21029;-54
2021/08/08 06:21:27;;;;;;;1.20;0.30;;;;;;;25.67;42.43;100300.84;1670776;84;21528;-54
2021/08/08 06:23:56;;;;;;;2.58;0.40;;;;;;;25.78;42.51;100292.24;1668790;84;21588;-54
2021/08/08 06:26:22;;;;;;;2.47;0.75;;;;;;;25.94;42.49;100294.28;1701932;84;21077;-52
2021/08/08 06:28:48;;;;;;;1.25;0.40;;;;;;;26.08;42.73;100291.64;1675756;84;21473;-55
2021/08/08 06:31:15;;;;;;;1.55;0.53;;;;;;;26.34;42.03;100291.30;1678440;84;21589;-55
2021/08/08 06:33:41;;;;;;;0.80;0.30;;;;;;;26.50;41.57;100296.78;1674633;84;21038;-55
2021/08/08 06:36:07;;;;;;;2.37;0.50;;;;;;;26.65;41.57;100298.50;1677174;84;21119;-54
2021/08/08 06:38:35;;;;;;;0.82;0.23;;;;;;;26.77;41.47;100300.80;1674056;84;21078;-55
2021/08/08 06:41:05;;;;;;;1.95;0.45;;;;;;;26.62;41.39;100310.05;1675644;84;21086;-56
2021/08/08 06:43:33;;;;;;;1.27;0.50;;;;;;;26.38;42.02;100304.63;1670201;84;21107;-55
2021/08/08 06:46:00;;;;;;;2.22;0.42;;;;;;;26.20;42.80;100305.69;1681006;84;21030;-56
2021/08/08 06:48:27;;;;;;;0.50;0.50;;;;;;;26.16;42.64;100312.86;1683398;84;21548;-58
2021/08/08 06:50:55;;;;;;;0.62;0.62;;;;;;;26.21;43.01;100307.30;1673104;84;21137;-55
2021/08/08 06:53:22;;;;;;;0.80;0.37;;;;;;;26.46;42.50;100317.61;1683895;84;21557;-55
2021/08/08 06:55:48;;;;;;;1.77;0.40;;;;;;;26.66;42.24;100315.17;1676008;83;21078;-53
2021/08/08 06:59:16;;;;;;;0.98;0.50;;;;;;;26.84;41.29;100312.15;1669893;84;21038;-54
2021/08/08 07:01:43;;;;;;;0.80;0.65;;;;;;;26.69;41.48;100309.66;1623456;86;21071;-55
2021/08/08 07:04:13;;;;;;;0.53;0.50;;;;;;;26.43;42.96;100308.66;1624195;86;21076;-57
2021/08/08 07:06:39;;;;;;;1.07;0.60;;;;;;;26.51;42.94;100309.35;1639391;85;21110;-56
2021/08/08 07:09:08;;;;;;;1.67;0.40;;;;;;;26.74;42.71;100313.12;1627024;86;21080;-56
2021/08/08 07:11:38;;;;;;;1.90;0.60;;;;;;;26.81;43.07;100314.13;1622014;86;21058;-56
2021/08/08 07:14:06;;;;;;;0.93;0.40;;;;;;;26.92;42.77;100304.66;1638676;85;21136;-55
2021/08/08 07:16:36;;;;;;;0.40;0.20;;;;;;;26.99;40.96;100309.72;1638554;85;21139;-56
2021/08/08 07:19:02;;;;;;;7.00;0.25;;;;;;;26.79;40.89;100316.35;1650241;85;21105;-58
2021/08/08 07:21:32;;;;;;;0.82;0.15;;;;;;;26.56;41.24;100318.85;1677094;84;21021;-56
2021/08/08 07:24:00;;;;;;;2.12;0.40;;;;;;;26.49;40.92;100308.84;1673619;84;21051;-58
2021/08/08 07:26:26;;;;;;;0.37;0.28;;;;;;;26.50;41.49;100315.91;1671754;85;21070;-55
2021/08/08 07:28:53;;;;;;;1.00;0.30;;;;;;;26.41;42.18;100317.15;1683638;85;21545;-54
2021/08/08 07:31:20;;;;;;;1.22;0.20;;;;;;;26.39;41.00;100316.63;1677153;85;21143;-57
2021/08/08 07:33:46;;;;;;;3.58;0.37;;;;;;;26.30;41.57;100321.69;1694735;84;21073;-57
2021/08/08 07:36:13;;;;;;;0.55;0.30;;;;;;;26.12;41.76;100331.47;1674777;84;21129;-55
2021/08/08 07:38:39;;;;;;;0.30;0.20;;;;;;;25.95;41.62;100334.69;1681281;84;21026;-70
2021/08/08 07:41:11;;;;;;;2.95;0.47;;;;;;;25.86;41.79;100331.73;1666715;84;20984;-67
2021/08/08 07:43:39;;;;;;;0.30;0.20;;;;;;;25.80;42.73;100329.62;1682345;84;20975;-72
2021/08/08 07:46:07;;;;;;;0.50;0.20;;;;;;;25.75;41.96;100332.42;1658388;84;20993;-73
2021/08/08 07:48:34;;;;;;;0.98;0.30;;;;;;;25.41;42.49;100291.03;1687696;84;21030;-72
2021/08/08 07:51:01;;;;;;;0.93;0.42;;;;;;;25.57;42.96;100323.61;1667579;84;20975;-71
2021/08/08 07:53:27;;;;;;;1.50;0.60;;;;;;;25.53;43.45;100324.73;1633738;86;21647;-71
2021/08/08 07:55:55;;;;;;;0.70;0.28;;;;;;;25.50;43.53;100339.50;1631081;85;21598;-65
2021/08/08 07:58:23;;;;;;;0.60;0.30;;;;;;;25.34;43.84;100334.76;1624244;87;21115;-62
2021/08/08 08:00:51;;;;;;;1.30;0.28;;;;;;;25.30;43.82;100337.25;1629075;86;21141;-64
2021/08/08 08:03:19;;;;;;;0.93;0.40;;;;;;;25.32;43.94;100343.23;1620184;87;21014;-65
2021/08/08 08:05:50;;;;;;;2.12;0.20;;;;;;;25.30;44.11;100336.41;1674852;84;21081;-64
2021/08/08 08:08:17;;;;;;;1.25;0.30;;;;;;;25.24;44.25;100341.09;1681662;85;21105;-64
2021/08/08 08:10:44;;;;;;;2.98;0.23;;;;;;;25.24;44.00;100341.94;1684922;85;21093;-64
2021/08/08 08:13:10;;;;;;;0.70;0.20;;;;;;;25.28;43.74;100338.09;1670373;84;21474;-64
2021/08/08 08:15:38;;;;;;;2.25;0.30;;;;;;;25.20;43.15;100334.56;1635310;85;21055;-62
2021/08/08 08:18:13;;;;;;;3.62;0.20;;;;;;;25.18;43.31;100336.20;1643893;85;21076;-64
2021/08/08 08:20:42;;;;;;;1.07;0.30;;;;;;;25.22;43.36;100337.81;1630677;85;21014;-65
2021/08/08 08:23:08;;;;;;;4.20;0.33;;;;;;;25.26;43.60;100340.29;1636637;85;21070;-64
2021/08/08 08:25:37;;;;;;;1.25;0.28;;;;;;;25.28;42.84;100333.99;1637339;85;21003;-58
2021/08/08 08:28:04;;;;;;;0.85;0.23;;;;;;;25.28;42.30;100334.52;1632132;85;21141;-58
2021/08/08 08:30:33;;;;;;;2.60;0.30;;;;;;;25.29;41.98;100332.07;1631893;85;21058;-62
2021/08/08 08:33:04;;;;;;;0.65;0.20;;;;;;;25.32;40.82;100324.69;1648195;85;20980;-62
2021/08/08 08:35:29;;;;;;;6.45;0.30;;;;;;;25.26;40.53;100330.74;1636096;85;21014;-65
2021/08/08 08:37:58;;;;;;;1.45;0.23;;;;;;;25.15;40.80;100323.16;1634703;85;21113;-62
2021/08/08 08:40:27;;;;;;;1.22;0.25;;;;;;;25.16;41.17;100320.68;1631154;85;21541;-62
2021/08/08 08:42:57;;;;;;;0.55;0.30;;;;;;;25.23;41.44;100319.83;1649678;85;21046;-62
2021/08/08 08:45:24;;;;;;;0.53;0.53;;;;;;;25.31;41.87;100313.50;1648579;85;20927;-62
2021/08/08 08:47:51;;;;;;;2.55;0.20;;;;;;;25.31;41.69;100309.41;1688441;84;21002;-62
2021/08/08 08:50:21;;;;;;;2.58;0.40;;;;;;;25.34;41.70;100302.83;1683895;84;20990;-62
2021/08/08 08:52:49;;;;;;;1.25;0.40;;;;;;;25.41;41.68;100305.20;1683628;84;21830;-62
2021/08/08 08:55:17;;;;;;;3.33;0.65;;;;;;;25.51;42.12;100305.67;1647431;85;21011;-62
2021/08/08 08:57:44;;;;;;;1.00;0.20;;;;;;;25.56;42.24;100298.77;1652492;86;21000;-62
2021/08/08 09:00:12;;;;;;;1.70;0.37;;;;;;;25.56;42.01;100305.06;1646723;85;20993;-62
2021/08/08 09:02:42;;;;;;;0.65;0.40;;;;;;;25.54;41.66;100305.08;1679025;83;21026;-62
2021/08/08 09:05:09;;;;;;;1.32;0.30;;;;;;;25.48;41.21;100298.86;1684643;83;21066;-62
2021/08/08 09:07:39;;;;;;;0.33;0.20;;;;;;;25.45;41.65;100294.80;1695173;83;21556;-62
2021/08/08 09:10:14;;;;;;;1.27;0.10;;;;;;;25.46;41.03;100299.70;1686308;83;21018;-63
2021/08/08 09:12:43;;;;;;;1.02;0.30;;;;;;;25.46;40.43;100294.24;1688744;83;21015;-62
2021/08/08 09:15:11;;;;;;;0.30;0.20;;;;;;;25.45;40.63;100301.63;1697881;83;20960;-62
2021/08/08 09:17:39;;;;;;;0.62;0.20;;;;;;;25.42;40.16;100298.09;1690141;83;21058;-62
2021/08/08 09:20:11;;;;;;;0.85;0.23;;;;;;;25.46;39.25;100284.70;1665257;83;21098;-62
2021/08/08 09:22:40;;;;;;;2.40;0.20;;;;;;;25.49;39.79;100288.78;1678095;83;21542;-62
2021/08/08 09:25:21;;;;;;;1.47;0.30;;;;;;;25.56;40.19;100288.70;1641598;86;21123;-62
2021/08/08 09:27:47;;;;;;;0.25;0.15;;;;;;;25.60;39.78;100278.02;1637614;86;21070;-62
2021/08/08 09:30:20;;;;;;;1.95;0.20;;;;;;;25.62;39.25;100280.70;1622503;86;21026;-62
2021/08/08 09:32:47;;;;;;;2.40;0.20;;;;;;;25.70;38.55;100276.52;1638763;86;21584;-62
2021/08/08 09:35:19;;;;;;;0.90;0.10;;;;;;;25.77;37.79;100284.37;1642441;86;21049;-62
2021/08/08 09:37:42;;;;;;;0.45;0.20;;;;;;;25.77;37.37;100285.17;1676263;84;21053;-62
2021/08/08 09:40:15;;;;;;;0.40;0.28;;;;;;;25.74;37.56;100283.58;1676410;84;21020;-62
2021/08/08 09:42:45;;;;;;;2.85;0.20;;;;;;;25.79;37.69;100283.52;1671201;84;21010;-62
2021/08/08 09:45:14;;;;;;;0.95;0.25;;;;;;;25.82;37.39;100283.75;1650815;85;21408;-62
2021/08/08 09:47:44;;;;;;;0.50;0.30;;;;;;;25.86;36.71;100286.69;1676805;85;21075;-62
2021/08/08 09:50:14;;;;;;;0.53;0.20;;;;;;;25.87;36.24;100279.33;1672285;85;20973;-62
2021/08/08 09:52:41;;;;;;;1.57;0.10;;;;;;;25.83;37.18;100277.17;1667494;84;21537;-62
2021/08/08 09:55:27;;;;;;;0.40;0.20;;;;;;;25.82;37.47;100274.73;1685039;82;20995;-61
2021/08/08 09:57:55;;;;;;;1.55;0.20;;;;;;;25.88;37.00;100270.02;1705243;83;21072;-62
2021/08/08 10:00:37;;;;;;;0.30;0.15;;;;;;;25.92;36.54;100273.81;1714723;83;21020;-61
2021/08/08 10:03:06;;;;;;;3.02;0.40;;;;;;;25.90;36.01;100268.64;1708874;83;21455;-62
2021/08/08 10:05:42;;;;;;;0.47;0.20;;;;;;;25.93;36.13;100271.36;1710639;84;21208;-62
2021/08/08 10:08:19;;;;;;;1.72;0.28;;;;;;;25.97;35.26;100268.30;1688802;83;21069;-62
2021/08/08 10:10:49;;;;;;;2.33;0.30;;;;;;;25.98;34.45;100279.50;1709330;83;21444;-62
2021/08/08 10:13:42;;;;;;;1.37;0.57;;;;;;;25.94;33.89;100281.19;1711216;83;21512;-62
2021/08/08 10:16:16;;;;;;;0.78;0.53;;;;;;;25.89;32.74;100274.39;1710221;83;20983;-61
2021/08/08 10:18:46;;;;;;;2.67;0.30;;;;;;;25.84;31.96;100284.80;1711542;83;21201;-61
2021/08/08 10:21:15;;;;;;;0.10;0.10;;;;;;;25.87;31.69;100286.16;1706066;84;21445;-61
2021/08/08 10:23:46;;;;;;;0.17;0.17;;;;;;;25.86;30.99;100288.61;1691946;83;21132;-61
2021/08/08 10:26:13;;;;;;;0.40;0.20;;;;;;;25.87;31.10;100291.06;1672950;85;21113;-61
2021/08/08 10:28:42;;;;;;;0.20;0.20;;;;;;;25.92;30.69;100288.83;1658435;84;21617;-61
2021/08/08 10:31:09;;;;;;;0.20;0.10;;;;;;;25.95;30.49;100293.72;1679381;85;21459;-61
2021/08/08 10:33:50;;;;;;;1.60;0.20;;;;;;;25.99;30.99;100302.42;1679381;84;21001;-61
2021/08/08 10:36:30;;;;;;;1.85;0.40;;;;;;;26.07;30.52;100304.22;1669189;84;21115;-61
2021/08/08 10:39:11;;;;;;;0.20;0.15;;;;;;;26.07;30.53;100301.48;1669575;84;21045;-61
2021/08/08 10:41:39;;;;;;;2.12;0.47;;;;;;;26.11;30.35;100297.89;1637575;86;20999;-61
2021/08/08 10:44:12;;;;;;;0.10;0.10;;;;;;;26.14;30.49;100290.45;1626425;87;21019;-60
2021/08/08 10:46:49;;;;;;;0.30;0.20;;;;;;;26.17;31.10;100291.80;1669835;84;21049;-61
2021/08/08 10:49:33;;;;;;;0.45;0.10;;;;;;;26.14;31.56;100285.55;1675271;84;20998;-61
2021/08/08 10:52:03;;;;;;;1.17;0.30;;;;;;;26.14;30.77;100288.28;1671110;84;21062;-61
2021/08/08 10:54:49;;;;;;;0.57;0.20;;;;;;;26.20;30.80;100281.64;1667525;84;21556;-61
2021/08/08 10:57:19;;;;;;;0.30;0.20;;;;;;;26.32;30.82;100280.66;1680492;85;22085;-61
2021/08/08 10:59:54;;;;;;;0.55;0.23;;;;;;;26.38;30.11;100274.00;1678466;85;21054;-61
2021/08/08 11:02:29;;;;;;;0.70;0.23;;;;;;;26.34;31.02;100281.73;1679985;84;21102;-61
2021/08/08 11:04:56;;;;;;;0.20;0.20;;;;;;;26.30;31.62;100280.14;1678628;84;21544;-61
2021/08/08 11:07:29;;;;;;;4.65;0.20;;;;;;;26.29;31.38;100273.05;1680299;84;21082;-61
2021/08/08 11:09:56;;;;;;;0.72;0.15;;;;;;;26.37;31.28;100289.33;1678988;84;21082;-61
2021/08/08 11:12:36;;;;;;;0.28;0.10;;;;;;;26.35;31.25;100286.08;1658616;85;21069;-61
2021/08/08 11:15:06;;;;;;;0.28;0.10;;;;;;;26.34;31.06;100282.54;1647725;86;21061;-61
2021/08/08 11:17:32;;;;;;;1.52;0.20;;;;;;;26.36;30.61;100280.32;1642860;86;21129;-60
2021/08/08 11:20:00;;;;;;;2.22;0.70;;;;;;;26.35;28.60;100286.08;1652539;86;21530;-60
2021/08/08 11:22:28;;;;;;;2.47;0.55;;;;;;;26.32;29.68;100285.32;1642632;86;21099;-60
2021/08/08 11:25:03;;;;;;;0.60;0.30;;;;;;;26.30;29.65;100276.05;1640409;86;21729;-60
2021/08/08 11:27:34;;;;;;;0.13;0.10;;;;;;;26.26;29.92;100279.65;1648986;86;21115;-60
2021/08/08 11:30:03;;;;;;;0.45;0.30;;;;;;;26.25;30.58;100282.94;1595381;87;21049;-60
2021/08/08 11:32:32;;;;;;;0.37;0.20;;;;;;;26.25;30.81;100278.04;1607433;89;20993;-60
2021/08/08 11:35:11;;;;;;;0.37;0.20;;;;;;;26.27;31.15;100282.66;1605663;87;21060;-60
2021/08/08 11:37:45;;;;;;;0.20;0.20;;;;;;;26.30;31.70;100289.70;1612177;87;21150;-61